ARG1384 SABE-SUMU
Flight info
| Callsign | ARG1384 |
|---|---|
| Flight time | 0h 30m |
| Altitude | 15000 |
| Route | DORVO8 DORVO A305 TOKAM |
| Aircraft | B738/M-SDE2E3FGHIRWXY/LB1 |
Departure
| Time | 2026-04-25 16:35 |
|---|---|
| Airport | Aeroparque Jorge Newbery (SABE) |
Arrival
| Time | 2026-04-25 17:05 |
|---|---|
| Airport | Carrasco General Cesáreo L. Berisso International Airport (SUMU) |
| Time | Latitude | Longitude | Altitude | Speed | Heading |
|---|---|---|---|---|---|
| 2026-04-25 16:13 | -34.55742 | -58.41364 | 22 ft | 0 kts | 27° |
| 2026-04-25 16:27 | -34.55754 | -58.41372 | 23 ft | 4 kts | 21° |
| 2026-04-25 16:27 | -34.55778 | -58.41378 | 25 ft | 4 kts | 335° |
| 2026-04-25 16:27 | -34.55788 | -58.41369 | 25 ft | 0 kts | 305° |
| 2026-04-25 16:30 | -34.55788 | -58.41370 | 25 ft | 1 kts | 305° |
| 2026-04-25 16:30 | -34.55771 | -58.41401 | 25 ft | 6 kts | 302° |
| 2026-04-25 16:30 | -34.55745 | -58.41453 | 24 ft | 8 kts | 299° |
| 2026-04-25 16:30 | -34.55718 | -58.41521 | 24 ft | 9 kts | 277° |
| 2026-04-25 16:31 | -34.55762 | -58.41580 | 22 ft | 10 kts | 215° |
| 2026-04-25 16:31 | -34.55768 | -58.41663 | 22 ft | 11 kts | 293° |
| 2026-04-25 16:31 | -34.55731 | -58.41747 | 21 ft | 12 kts | 299° |
| 2026-04-25 16:31 | -34.55678 | -58.41848 | 21 ft | 15 kts | 305° |
| 2026-04-25 16:32 | -34.55616 | -58.41961 | 22 ft | 17 kts | 303° |
| 2026-04-25 16:32 | -34.55545 | -58.42084 | 22 ft | 18 kts | 306° |
| 2026-04-25 16:32 | -34.55469 | -58.42204 | 22 ft | 18 kts | 308° |
| 2026-04-25 16:32 | -34.55399 | -58.42318 | 22 ft | 16 kts | 309° |
| 2026-04-25 16:33 | -34.55372 | -58.42363 | 22 ft | 0 kts | 298° |
| 2026-04-25 16:33 | -34.55370 | -58.42369 | 24 ft | 4 kts | 297° |
| 2026-04-25 16:33 | -34.55355 | -58.42437 | 22 ft | 13 kts | 281° |
| 2026-04-25 16:34 | -34.55374 | -58.42501 | 22 ft | 9 kts | 203° |
| 2026-04-25 16:34 | -34.55421 | -58.42475 | 22 ft | 15 kts | 126° |
| 2026-04-25 16:34 | -34.55634 | -58.42091 | 23 ft | 95 kts | 124° |
| 2026-04-25 16:34 | -34.56143 | -58.41184 | 29 ft | 162 kts | 127° |
| 2026-04-25 16:35 | -34.56831 | -58.39983 | 536 ft | 185 kts | 127° |
| 2026-04-25 16:35 | -34.57608 | -58.38620 | 1036 ft | 199 kts | 124° |
| 2026-04-25 16:35 | -34.58262 | -58.37095 | 1457 ft | 212 kts | 108° |
| 2026-04-25 16:35 | -34.58519 | -58.35327 | 2069 ft | 210 kts | 95° |
| 2026-04-25 16:36 | -34.58503 | -58.33601 | 2868 ft | 202 kts | 85° |
| 2026-04-25 16:36 | -34.58449 | -58.33053 | 3105 ft | 200 kts | 84° |
| 2026-04-25 16:36 | -34.58386 | -58.30095 | 3755 ft | 228 kts | 102° |
| 2026-04-25 16:36 | -34.58718 | -58.28146 | 4043 ft | 248 kts | 105° |
| 2026-04-25 16:37 | -34.59113 | -58.26077 | 4660 ft | 254 kts | 105° |
| 2026-04-25 16:37 | -34.59513 | -58.23966 | 5366 ft | 256 kts | 106° |
| 2026-04-25 16:37 | -34.59906 | -58.21839 | 6079 ft | 258 kts | 106° |
| 2026-04-25 16:37 | -34.60290 | -58.19713 | 6732 ft | 264 kts | 105° |
| 2026-04-25 16:38 | -34.60697 | -58.17428 | 7120 ft | 285 kts | 104° |
| 2026-04-25 16:38 | -34.61109 | -58.15064 | 7833 ft | 292 kts | 104° |
| 2026-04-25 16:38 | -34.61526 | -58.12635 | 8639 ft | 296 kts | 104° |
| 2026-04-25 16:38 | -34.61946 | -58.10161 | 9445 ft | 300 kts | 103° |
| 2026-04-25 16:39 | -34.62372 | -58.07641 | 10165 ft | 308 kts | 103° |
| 2026-04-25 16:39 | -34.62811 | -58.05040 | 10457 ft | 330 kts | 103° |
| 2026-04-25 16:39 | -34.63289 | -58.02189 | 10644 ft | 355 kts | 102° |
| 2026-04-25 16:39 | -34.63794 | -57.99166 | 11017 ft | 370 kts | 102° |
| 2026-04-25 16:40 | -34.64304 | -57.96097 | 11637 ft | 377 kts | 102° |
| 2026-04-25 16:40 | -34.64827 | -57.92941 | 12394 ft | 382 kts | 101° |
| 2026-04-25 16:40 | -34.65356 | -57.89752 | 13135 ft | 385 kts | 102° |
| 2026-04-25 16:40 | -34.65882 | -57.86573 | 13808 ft | 391 kts | 101° |
| 2026-04-25 16:41 | -34.66422 | -57.83307 | 14415 ft | 396 kts | 101° |
| 2026-04-25 16:41 | -34.66606 | -57.82196 | 14632 ft | 397 kts | 101° |
| 2026-04-25 16:41 | -34.68057 | -57.73389 | 15013 ft | 400 kts | 101° |
| 2026-04-25 16:42 | -34.68603 | -57.70066 | 15025 ft | 400 kts | 101° |
| 2026-04-25 16:42 | -34.69148 | -57.66738 | 15033 ft | 401 kts | 101° |
| 2026-04-25 16:42 | -34.69695 | -57.63394 | 15015 ft | 402 kts | 101° |
| 2026-04-25 16:42 | -34.70234 | -57.60096 | 15031 ft | 402 kts | 101° |
| 2026-04-25 16:43 | -34.70780 | -57.56751 | 15027 ft | 402 kts | 101° |
| 2026-04-25 16:43 | -34.71326 | -57.53402 | 15026 ft | 403 kts | 101° |
| 2026-04-25 16:43 | -34.71806 | -57.50049 | 15011 ft | 403 kts | 97° |
| 2026-04-25 16:43 | -34.72135 | -57.46662 | 15020 ft | 403 kts | 95° |
| 2026-04-25 16:44 | -34.72401 | -57.43306 | 15020 ft | 403 kts | 94° |
| 2026-04-25 16:44 | -34.72655 | -57.39904 | 15013 ft | 403 kts | 94° |
| 2026-04-25 16:44 | -34.72911 | -57.36505 | 15013 ft | 403 kts | 95° |
| 2026-04-25 16:44 | -34.73172 | -57.33154 | 15012 ft | 402 kts | 95° |
| 2026-04-25 16:45 | -34.73442 | -57.29762 | 15012 ft | 402 kts | 95° |
| 2026-04-25 16:45 | -34.73717 | -57.26375 | 15012 ft | 401 kts | 95° |
| 2026-04-25 16:45 | -34.73993 | -57.22992 | 15007 ft | 400 kts | 95° |
| 2026-04-25 16:45 | -34.74267 | -57.19653 | 15008 ft | 400 kts | 95° |
| 2026-04-25 16:46 | -34.74543 | -57.16281 | 15007 ft | 400 kts | 95° |
| 2026-04-25 16:46 | -34.74817 | -57.12910 | 15006 ft | 400 kts | 95° |
| 2026-04-25 16:46 | -34.75088 | -57.09580 | 15001 ft | 399 kts | 95° |
| 2026-04-25 16:46 | -34.75180 | -57.08433 | 15003 ft | 399 kts | 95° |
| 2026-04-25 16:47 | -34.75632 | -57.02833 | 15018 ft | 400 kts | 95° |
| 2026-04-25 16:47 | -34.75903 | -56.99453 | 15009 ft | 400 kts | 95° |
| 2026-04-25 16:47 | -34.76172 | -56.96089 | 15016 ft | 408 kts | 95° |
| 2026-04-25 16:47 | -34.76447 | -56.92624 | 15009 ft | 412 kts | 95° |
| 2026-04-25 16:48 | -34.76723 | -56.89152 | 15002 ft | 411 kts | 95° |
| 2026-04-25 16:48 | -34.76997 | -56.85692 | 14993 ft | 409 kts | 95° |
| 2026-04-25 16:48 | -34.77266 | -56.82284 | 14998 ft | 408 kts | 95° |
| 2026-04-25 16:48 | -34.77537 | -56.78838 | 15008 ft | 408 kts | 95° |
| 2026-04-25 16:49 | -34.77776 | -56.75389 | 15031 ft | 410 kts | 90° |
| 2026-04-25 16:49 | -34.77398 | -56.71951 | 15022 ft | 409 kts | 70° |
| 2026-04-25 16:49 | -34.76176 | -56.68862 | 15005 ft | 403 kts | 52° |
| 2026-04-25 16:49 | -34.74420 | -56.66291 | 14822 ft | 398 kts | 45° |
| 2026-04-25 16:50 | -34.72566 | -56.63797 | 14466 ft | 394 kts | 44° |
| 2026-04-25 16:50 | -34.70726 | -56.61342 | 14127 ft | 391 kts | 44° |
| 2026-04-25 16:50 | -34.68922 | -56.58925 | 13802 ft | 390 kts | 45° |
| 2026-04-25 16:50 | -34.67098 | -56.56466 | 13427 ft | 389 kts | 45° |
| 2026-04-25 16:51 | -34.65290 | -56.54012 | 13065 ft | 388 kts | 45° |
| 2026-04-25 16:51 | -34.63517 | -56.51538 | 12725 ft | 389 kts | 50° |
| 2026-04-25 16:51 | -34.62023 | -56.48789 | 12309 ft | 390 kts | 58° |
| 2026-04-25 16:51 | -34.61590 | -56.47856 | 12158 ft | 390 kts | 61° |
| 2026-04-25 16:52 | -34.59874 | -56.42929 | 11428 ft | 370 kts | 68° |
| 2026-04-25 16:52 | -34.58956 | -56.40051 | 10987 ft | 358 kts | 68° |
| 2026-04-25 16:52 | -34.58068 | -56.37260 | 10623 ft | 350 kts | 69° |
| 2026-04-25 16:52 | -34.57205 | -56.34557 | 10216 ft | 345 kts | 68° |
| 2026-04-25 16:53 | -34.55440 | -56.29145 | 9143 ft | 344 kts | 68° |
| 2026-04-25 16:53 | -34.54552 | -56.26461 | 8569 ft | 340 kts | 68° |
| 2026-04-25 16:53 | -34.53683 | -56.23821 | 8049 ft | 333 kts | 68° |
| 2026-04-25 16:54 | -34.52847 | -56.21268 | 7607 ft | 325 kts | 68° |
| 2026-04-25 16:54 | -34.52022 | -56.18733 | 7160 ft | 318 kts | 68° |
| 2026-04-25 16:54 | -34.51229 | -56.16283 | 6730 ft | 312 kts | 68° |
| 2026-04-25 16:54 | -34.50443 | -56.13838 | 6290 ft | 307 kts | 68° |
| 2026-04-25 16:55 | -34.49672 | -56.11432 | 5831 ft | 302 kts | 68° |
| 2026-04-25 16:55 | -34.49105 | -56.09039 | 5363 ft | 298 kts | 83° |
| 2026-04-25 16:55 | -34.48954 | -56.06556 | 4983 ft | 291 kts | 87° |
| 2026-04-25 16:55 | -34.48877 | -56.04152 | 4739 ft | 279 kts | 88° |
| 2026-04-25 16:56 | -34.48815 | -56.01844 | 4520 ft | 268 kts | 88° |
| 2026-04-25 16:56 | -34.48759 | -55.99622 | 4308 ft | 258 kts | 88° |
| 2026-04-25 16:56 | -34.48707 | -55.97501 | 4092 ft | 250 kts | 90° |
| 2026-04-25 16:56 | -34.48829 | -55.95431 | 3873 ft | 242 kts | 97° |
| 2026-04-25 16:57 | -34.49142 | -55.93469 | 3646 ft | 233 kts | 115° |
| 2026-04-25 16:57 | -34.49396 | -55.92914 | 3554 ft | 232 kts | 129° |
| 2026-04-25 16:57 | -34.51722 | -55.91880 | 3187 ft | 215 kts | 194° |
| 2026-04-25 16:57 | -34.53159 | -55.92287 | 3055 ft | 211 kts | 194° |
| 2026-04-25 16:58 | -34.54587 | -55.92707 | 2999 ft | 210 kts | 194° |
| 2026-04-25 16:58 | -34.56010 | -55.92965 | 2987 ft | 210 kts | 177° |
| 2026-04-25 16:58 | -34.57391 | -55.92416 | 3005 ft | 212 kts | 149° |
| 2026-04-25 16:58 | -34.58662 | -55.91473 | 3005 ft | 215 kts | 157° |
| 2026-04-25 16:59 | -34.60017 | -55.90779 | 3020 ft | 213 kts | 159° |
| 2026-04-25 16:59 | -34.61393 | -55.90051 | 3026 ft | 217 kts | 158° |
| 2026-04-25 16:59 | -34.62782 | -55.89317 | 3030 ft | 218 kts | 158° |
| 2026-04-25 16:59 | -34.64147 | -55.88594 | 3030 ft | 214 kts | 158° |
| 2026-04-25 17:00 | -34.65515 | -55.87875 | 3025 ft | 214 kts | 161° |
| 2026-04-25 17:00 | -34.66945 | -55.87494 | 2985 ft | 205 kts | 175° |
| 2026-04-25 17:00 | -34.68338 | -55.87166 | 2990 ft | 202 kts | 165° |
| 2026-04-25 17:00 | -34.69646 | -55.86602 | 3005 ft | 202 kts | 159° |
| 2026-04-25 17:01 | -34.70933 | -55.85890 | 3003 ft | 202 kts | 159° |
| 2026-04-25 17:01 | -34.72288 | -55.85738 | 2986 ft | 194 kts | 201° |
| 2026-04-25 17:01 | -34.73462 | -55.86418 | 2906 ft | 187 kts | 217° |
| 2026-04-25 17:01 | -34.74360 | -55.87499 | 2751 ft | 177 kts | 234° |
| 2026-04-25 17:02 | -34.75108 | -55.88712 | 2501 ft | 180 kts | 235° |
| 2026-04-25 17:02 | -34.75589 | -55.89510 | 2506 ft | 173 kts | 235° |
| 2026-04-25 17:02 | -34.76288 | -55.90652 | 2350 ft | 163 kts | 235° |
| 2026-04-25 17:02 | -34.76743 | -55.91388 | 2101 ft | 162 kts | 235° |
| 2026-04-25 17:03 | -34.77605 | -55.92802 | 1823 ft | 154 kts | 236° |
| 2026-04-25 17:03 | -34.78224 | -55.93822 | 1620 ft | 149 kts | 236° |
| 2026-04-25 17:03 | -34.78845 | -55.94848 | 1428 ft | 153 kts | 235° |
| 2026-04-25 17:03 | -34.79469 | -55.95877 | 1235 ft | 152 kts | 233° |
| 2026-04-25 17:04 | -34.80110 | -55.96906 | 1019 ft | 152 kts | 232° |
| 2026-04-25 17:04 | -34.80729 | -55.97949 | 788 ft | 151 kts | 233° |
| 2026-04-25 17:04 | -34.81338 | -55.98978 | 593 ft | 149 kts | 231° |
| 2026-04-25 17:04 | -34.81960 | -56.00005 | 401 ft | 151 kts | 231° |
| 2026-04-25 17:05 | -34.82582 | -56.01031 | 213 ft | 152 kts | 229° |
| 2026-04-25 17:05 | -34.83718 | -56.02886 | 74 ft | 89 kts | 233° |
| 2026-04-25 17:05 | -34.83930 | -56.03080 | 62 ft | 25 kts | 174° |
| 2026-04-25 17:06 | -34.84011 | -56.02982 | 66 ft | 17 kts | 88° |
| 2026-04-25 17:06 | -34.84011 | -56.02868 | 66 ft | 9 kts | 92° |
| 2026-04-25 17:06 | -34.84009 | -56.02804 | 61 ft | 6 kts | 83° |
| 2026-04-25 17:06 | -34.84007 | -56.02796 | 62 ft | 0 kts | 71° |
| 2026-04-25 17:07 | -34.84003 | -56.02782 | 67 ft | 5 kts | 65° |
| 2026-04-25 17:08 | -34.83986 | -56.02746 | 67 ft | 5 kts | 60° |
| 2026-04-25 17:08 | -34.83970 | -56.02710 | 66 ft | 5 kts | 62° |
| 2026-04-25 17:08 | -34.83954 | -56.02663 | 73 ft | 8 kts | 74° |
| 2026-04-25 17:08 | -34.83917 | -56.02626 | 75 ft | 6 kts | 10° |
| 2026-04-25 17:09 | -34.83885 | -56.02605 | 69 ft | 5 kts | 67° |
| 2026-04-25 17:09 | -34.83885 | -56.02575 | 68 ft | 2 kts | 90° |
| 2026-04-25 17:09 | -34.83885 | -56.02574 | 68 ft | 0 kts | 89° |
| 2026-04-25 17:16 | -34.63909 | -55.88720 | 3012 ft | 215 kts | 158° |
| 2026-04-25 17:16 | -34.65218 | -55.88029 | 3024 ft | 214 kts | 159° |
| 2026-04-25 17:16 | -34.66607 | -55.87541 | 2967 ft | 208 kts | 175° |
| 2026-04-25 17:16 | -34.81125 | -55.98630 | 669 ft | 149 kts | 231° |
| 2026-04-25 17:17 | -34.81807 | -55.99750 | 449 ft | 151 kts | 231° |
| 2026-04-25 17:17 | -34.82486 | -56.00877 | 244 ft | 152 kts | 230° |
| 2026-04-25 17:17 | -34.83171 | -56.01997 | 94 ft | 143 kts | 229° |
| 2026-04-25 17:17 | -34.82063 | -56.00178 | 367 ft | 152 kts | 231° |
| 2026-04-25 17:18 | -34.82684 | -56.01195 | 174 ft | 152 kts | 230° |
| 2026-04-25 17:18 | -34.83317 | -56.02229 | 91 ft | 137 kts | 234° |
| 2026-04-25 17:18 | -34.82383 | -56.00707 | 272 ft | 152 kts | 231° |
| 2026-04-25 17:18 | -34.83039 | -56.01779 | 106 ft | 147 kts | 231° |
| 2026-04-25 17:19 | -34.83610 | -56.02707 | 71 ft | 113 kts | 234° |
| 2026-04-25 17:19 | -34.82713 | -56.01242 | 165 ft | 152 kts | 230° |
| 2026-04-25 17:19 | -34.83310 | -56.02218 | 92 ft | 138 kts | 233° |
| 2026-04-25 17:19 | -34.82204 | -56.00410 | 321 ft | 153 kts | 231° |
| 2026-04-25 17:20 | -34.82845 | -56.01456 | 125 ft | 152 kts | 230° |
| 2026-04-25 17:20 | -34.83420 | -56.02403 | 89 ft | 129 kts | 235° |
| 2026-04-25 17:20 | -34.83827 | -56.03051 | 65 ft | 38 kts | 227° |
| 2026-04-25 17:20 | -34.83087 | -56.01858 | 101 ft | 146 kts | 230° |
| 2026-04-25 17:21 | -34.83634 | -56.02749 | 74 ft | 111 kts | 234° |
| 2026-04-25 17:21 | -34.83901 | -56.03084 | 64 ft | 25 kts | 174° |
| 2026-04-25 17:21 | -34.80536 | -55.97618 | 876 ft | 151 kts | 233° |
| 2026-04-25 17:21 | -34.81129 | -55.98637 | 668 ft | 149 kts | 231° |
| 2026-04-25 17:22 | -34.81742 | -55.99641 | 465 ft | 151 kts | 232° |
| 2026-04-25 17:22 | -34.82163 | -56.00342 | 335 ft | 152 kts | 231° |
| 2026-04-25 17:22 | -34.82998 | -56.01711 | 110 ft | 149 kts | 231° |
| 2026-04-25 17:22 | -34.83560 | -56.02628 | 82 ft | 117 kts | 232° |
| 2026-04-25 17:23 | -34.83547 | -56.02607 | 85 ft | 118 kts | 232° |
| 2026-04-25 17:23 | -34.83867 | -56.03080 | 71 ft | 27 kts | 199° |